Time;durP1;ratioP1;P1;durP2;ratioP2;P2;SDS_P1;SDS_P2;PMS_P1;PMS_P2;Temp;Humidity;BMP_temperature;BMP_pressure;BME280_temperature;BME280_humidity;BME280_pressure;Samples;Min_cycle;Max_cycle;Signal;HPM_P1;HPM_P2
2022/07/28 00:01:39;;;;;;;4.68;3.03;;;;;;;13.72;81.65;100625.31;5055736;28;20041;-83
2022/07/28 00:04:05;;;;;;;5.82;2.92;;;;;;;13.72;81.77;100627.13;5051494;28;20034;-83
2022/07/28 00:06:31;;;;;;;4.65;2.50;;;;;;;13.72;81.81;100625.31;5052062;28;20524;-83
2022/07/28 00:08:57;;;;;;;3.92;2.63;;;;;;;13.74;81.78;100627.81;5052816;28;20045;-83
2022/07/28 00:11:22;;;;;;;5.07;2.75;;;;;;;13.77;81.77;100628.31;5049908;28;20037;-83
2022/07/28 00:13:48;;;;;;;2.95;1.95;;;;;;;13.82;81.73;100627.84;5052019;28;20032;-83
2022/07/28 00:16:14;;;;;;;3.60;2.63;;;;;;;13.91;81.74;100631.34;5051093;28;20055;-83
2022/07/28 00:18:40;;;;;;;4.18;2.40;;;;;;;13.95;81.29;100623.88;5035052;28;20029;-83
2022/07/28 00:21:06;;;;;;;3.78;2.47;;;;;;;13.99;81.19;100622.56;5065319;28;20040;-83
2022/07/28 00:23:32;;;;;;;3.40;2.67;;;;;;;14.02;80.87;100628.38;5051175;28;20037;-83
2022/07/28 00:25:57;;;;;;;3.42;2.35;;;;;;;14.06;80.69;100622.75;5046978;28;20125;-79
2022/07/28 00:28:23;;;;;;;4.70;2.97;;;;;;;14.06;80.75;100622.75;5051527;28;20021;-78
2022/07/28 00:30:49;;;;;;;3.38;2.63;;;;;;;14.03;80.77;100618.56;5051729;28;20025;-83
2022/07/28 00:33:15;;;;;;;5.97;2.60;;;;;;;14.00;81.12;100622.38;5052916;28;20021;-83
2022/07/28 00:35:41;;;;;;;4.25;2.83;;;;;;;13.98;81.42;100611.09;5049946;28;20067;-79
2022/07/28 00:38:07;;;;;;;3.80;2.60;;;;;;;13.95;81.46;100616.72;5059847;28;20056;-78
2022/07/28 00:43:17;;;;;;;3.20;2.63;;;;;;;13.91;81.68;100601.28;5048239;28;20056;-78
2022/07/28 00:45:43;;;;;;;1.65;1.55;;;;;;;13.93;81.25;100607.25;5050678;28;20548;-83
2022/07/28 00:48:08;;;;;;;5.38;2.30;;;;;;;13.94;81.52;100600.94;5051131;28;20548;-83
2022/07/28 00:50:37;;;;;;;2.47;2.15;;;;;;;13.97;81.56;100603.28;5051981;28;20029;-83
2022/07/28 00:53:04;;;;;;;3.95;2.15;;;;;;;14.00;81.48;100602.94;5047197;28;20120;-83
2022/07/28 00:55:30;;;;;;;3.42;2.63;;;;;;;14.01;80.99;100594.00;5052623;28;20041;-83
2022/07/28 00:57:56;;;;;;;4.10;2.40;;;;;;;13.98;81.05;100592.47;5051834;28;20550;-78
2022/07/28 01:00:22;;;;;;;4.85;2.65;;;;;;;13.96;81.28;100591.84;5067079;28;20037;-78
2022/07/28 01:02:48;;;;;;;6.22;2.58;;;;;;;13.91;81.63;100593.28;5052292;28;20032;-83
2022/07/28 01:05:14;;;;;;;6.55;3.05;;;;;;;13.86;81.81;100588.47;5049128;28;20033;-83
2022/07/28 01:08:28;;;;;;;6.45;2.75;;;;;;;13.86;81.77;100593.78;5053270;28;20452;-83
2022/07/28 01:11:00;;;;;;;6.40;2.65;;;;;;;13.85;82.03;100590.31;5018332;28;20041;-83
2022/07/28 01:13:33;;;;;;;3.08;2.22;;;;;;;13.87;81.98;100590.16;5051718;28;20108;-83
2022/07/28 01:16:03;;;;;;;4.65;2.80;;;;;;;13.89;81.78;100588.97;5048491;28;20052;-83
2022/07/28 01:18:46;;;;;;;7.05;2.65;;;;;;;13.86;81.51;100584.00;5049822;28;20115;-83
2022/07/28 01:21:14;;;;;;;6.88;3.03;;;;;;;13.87;81.81;100582.19;5052453;28;20516;-83
2022/07/28 01:24:08;;;;;;;5.63;3.03;;;;;;;13.85;81.64;100579.69;5048833;28;20431;-83
2022/07/28 01:26:57;;;;;;;5.97;3.47;;;;;;;13.87;81.89;100584.84;5054795;28;20027;-83
2022/07/28 01:29:50;;;;;;;7.03;3.78;;;;;;;13.85;81.67;100584.16;5047767;28;20037;-83
2022/07/28 01:32:24;;;;;;;7.10;2.42;;;;;;;13.80;81.77;100581.16;5049369;28;20107;-83
2022/07/28 01:34:59;;;;;;;9.07;3.00;;;;;;;13.79;81.94;100577.69;5043344;28;20118;-83
2022/07/28 01:37:29;;;;;;;8.45;2.92;;;;;;;13.77;82.12;100572.53;5054864;28;20024;-83
2022/07/28 01:39:59;;;;;;;3.00;2.38;;;;;;;13.74;82.26;100569.38;5053420;28;20028;-83
2022/07/28 01:42:30;;;;;;;4.70;3.10;;;;;;;13.74;82.45;100561.38;5065884;28;20363;-83
2022/07/28 01:44:59;;;;;;;3.47;2.88;;;;;;;13.70;82.45;100570.66;5049748;28;20082;-83
2022/07/28 01:47:28;;;;;;;3.38;2.63;;;;;;;13.71;82.74;100569.69;5053312;28;20024;-83
2022/07/28 01:49:58;;;;;;;3.88;2.80;;;;;;;13.69;82.79;100564.53;5049884;28;20037;-83
2022/07/28 01:52:26;;;;;;;6.63;2.45;;;;;;;13.67;82.88;100566.50;5050279;28;20033;-83
2022/07/28 01:54:54;;;;;;;5.43;2.53;;;;;;;13.58;82.96;100557.69;5045166;28;20036;-83
2022/07/28 01:57:20;;;;;;;4.70;2.60;;;;;;;13.58;83.11;100568.31;5048187;28;20028;-78
2022/07/28 01:59:47;;;;;;;3.88;2.40;;;;;;;13.61;83.14;100559.19;5050957;28;20375;-78
2022/07/28 02:02:20;;;;;;;3.92;2.40;;;;;;;13.60;82.90;100552.22;5049247;28;20079;-83
2022/07/28 02:04:47;;;;;;;4.65;2.50;;;;;;;13.63;82.78;100546.59;5048933;28;20036;-83
2022/07/28 02:07:15;;;;;;;5.57;2.70;;;;;;;13.63;82.67;100549.25;5050325;28;20103;-83
2022/07/28 02:09:43;;;;;;;3.08;2.20;;;;;;;13.61;82.51;100551.22;5030197;28;20060;-84
2022/07/28 02:12:12;;;;;;;5.28;2.67;;;;;;;13.61;82.81;100545.91;5080438;28;20025;-78
2022/07/28 02:14:40;;;;;;;7.25;2.40;;;;;;;13.58;82.79;100547.09;5037028;28;20095;-78
2022/07/28 02:17:11;;;;;;;5.53;2.45;;;;;;;13.57;82.71;100541.94;5048558;28;20025;-83
2022/07/28 02:19:39;;;;;;;5.82;2.22;;;;;;;13.52;83.07;100540.56;5045165;28;20117;-83
2022/07/28 02:22:06;;;;;;;5.63;2.22;;;;;;;13.46;83.36;100538.53;5050555;28;20552;-83
2022/07/28 02:24:33;;;;;;;3.60;2.30;;;;;;;13.43;83.39;100543.31;5029718;28;20032;-83
2022/07/28 02:27:04;;;;;;;4.57;2.42;;;;;;;13.37;83.56;100542.16;5046986;28;20026;-83
2022/07/28 02:29:35;;;;;;;2.67;2.38;;;;;;;13.26;83.85;100536.16;5053662;28;20025;-83
2022/07/28 02:32:08;;;;;;;3.92;2.33;;;;;;;13.18;84.24;100529.97;5048610;28;20075;-83
2022/07/28 02:34:37;;;;;;;5.57;2.88;;;;;;;13.07;84.32;100529.28;5030755;28;20055;-83
2022/07/28 02:37:05;;;;;;;2.40;2.17;;;;;;;13.03;84.81;100523.44;5053072;28;20036;-83
2022/07/28 02:39:50;;;;;;;2.97;2.63;;;;;;;12.99;84.87;100529.22;5047741;28;20048;-83
2022/07/28 02:42:25;;;;;;;3.80;2.30;;;;;;;12.97;84.94;100520.59;5031010;28;20033;-83
2022/07/28 02:45:00;;;;;;;4.15;2.22;;;;;;;13.00;84.97;100520.25;5046470;28;20497;-83
2022/07/28 02:47:31;;;;;;;4.25;2.25;;;;;;;13.07;84.45;100512.50;5049428;28;20036;-84
2022/07/28 02:49:59;;;;;;;3.92;1.90;;;;;;;13.13;84.59;100518.03;5043704;28;20112;-83
2022/07/28 02:52:27;;;;;;;2.85;2.08;;;;;;;13.19;84.10;100507.72;5048363;28;20057;-83
2022/07/28 02:54:54;;;;;;;2.67;2.30;;;;;;;13.25;83.60;100507.94;5047363;28;20091;-83
2022/07/28 02:57:21;;;;;;;2.40;2.05;;;;;;;13.27;83.44;100508.59;5049189;28;20021;-83
2022/07/28 02:59:48;;;;;;;7.35;2.33;;;;;;;13.30;83.06;100511.94;5047808;28;20432;-83
2022/07/28 03:02:18;;;;;;;3.25;1.92;;;;;;;13.31;83.04;100506.47;5075278;28;20025;-83
2022/07/28 03:05:03;;;;;;;3.85;2.03;;;;;;;13.31;83.13;100500.31;5047096;28;20184;-83
2022/07/28 03:07:31;;;;;;;2.58;1.80;;;;;;;13.34;82.79;100500.00;5038057;28;20033;-83
2022/07/28 03:09:58;;;;;;;4.15;1.65;;;;;;;13.36;82.59;100498.03;5049799;28;20195;-83
2022/07/28 03:12:25;;;;;;;1.95;1.70;;;;;;;13.30;82.39;100499.47;5037827;28;20025;-83
2022/07/28 03:14:51;;;;;;;4.35;2.35;;;;;;;13.21;82.60;100498.63;5049645;28;20125;-83
2022/07/28 03:17:18;;;;;;;3.30;1.80;;;;;;;13.10;83.18;100497.09;5047890;28;20148;-83
2022/07/28 03:19:44;;;;;;;2.45;1.48;;;;;;;13.06;83.34;100493.09;5050034;28;20029;-83
2022/07/28 03:22:10;;;;;;;2.50;2.22;;;;;;;13.02;83.54;100497.06;5052976;28;20493;-83
2022/07/28 03:24:43;;;;;;;3.70;2.00;;;;;;;13.00;83.74;100510.50;5049043;28;20112;-84
2022/07/28 03:27:10;;;;;;;4.65;1.52;;;;;;;12.99;83.84;100502.69;5058248;28;20078;-84
2022/07/28 03:29:38;;;;;;;2.38;1.50;;;;;;;13.03;83.34;100514.63;5059728;28;20060;-83
2022/07/28 03:32:04;;;;;;;5.90;1.63;;;;;;;13.01;83.20;100506.84;5034710;28;20389;-83
2022/07/28 03:34:30;;;;;;;3.25;1.48;;;;;;;13.02;83.34;100503.22;5031031;28;20406;-83
2022/07/28 03:37:01;;;;;;;2.95;1.73;;;;;;;12.93;83.05;100504.16;5050595;28;20107;-83
2022/07/28 03:39:36;;;;;;;2.33;1.67;;;;;;;12.73;83.62;100499.09;5056241;28;20108;-83
2022/07/28 03:42:03;;;;;;;2.90;1.73;;;;;;;12.59;84.52;100497.00;5044595;28;20041;-83
2022/07/28 03:44:30;;;;;;;2.47;1.63;;;;;;;12.52;84.80;100496.78;5054599;28;20044;-83
2022/07/28 03:46:56;;;;;;;6.00;1.90;;;;;;;12.53;84.77;100495.81;5053498;28;20029;-83
2022/07/28 03:49:21;;;;;;;3.78;1.83;;;;;;;12.60;84.35;100488.06;5052831;28;20037;-83
2022/07/28 03:51:47;;;;;;;6.15;1.48;;;;;;;12.68;84.40;100492.59;5050949;28;20082;-78
2022/07/28 03:54:13;;;;;;;3.10;1.85;;;;;;;12.73;84.21;100487.63;5051558;28;20025;-78
2022/07/28 03:56:39;;;;;;;2.63;1.38;;;;;;;12.81;83.59;100493.00;5031294;28;20036;-83
2022/07/28 03:59:05;;;;;;;2.63;1.42;;;;;;;12.89;83.03;100489.53;5055989;28;20029;-83
2022/07/28 04:01:31;;;;;;;1.70;1.20;;;;;;;12.95;82.84;100493.41;5054923;28;20033;-83
2022/07/28 04:03:56;;;;;;;5.10;1.60;;;;;;;12.97;82.80;100492.25;5058844;28;20037;-83
2022/07/28 04:06:22;;;;;;;2.20;1.20;;;;;;;12.99;82.48;100495.56;5051169;28;20021;-83
2022/07/28 04:08:48;;;;;;;6.10;1.77;;;;;;;13.02;82.05;100494.41;5051119;28;20056;-83
2022/07/28 04:11:14;;;;;;;1.48;1.23;;;;;;;13.05;81.92;100498.56;5050793;28;20041;-83
2022/07/28 04:13:39;;;;;;;3.42;1.40;;;;;;;13.06;81.90;100501.06;5053549;28;20028;-83
2022/07/28 04:16:05;;;;;;;6.43;2.33;;;;;;;13.08;81.60;100501.75;5052443;28;20036;-83
2022/07/28 04:18:31;;;;;;;1.83;1.38;;;;;;;13.06;81.28;100500.25;5051018;28;20037;-83
2022/07/28 04:20:57;;;;;;;3.08;1.25;;;;;;;13.06;80.82;100503.72;5083229;28;20075;-83
2022/07/28 04:23:24;;;;;;;2.65;1.52;;;;;;;13.08;80.99;100501.75;5047848;28;20096;-83
2022/07/28 04:25:49;;;;;;;3.92;1.45;;;;;;;13.05;80.67;100504.72;5054387;28;20032;-83
2022/07/28 04:28:15;;;;;;;4.53;1.55;;;;;;;13.04;80.59;100500.41;5054136;28;20535;-83
2022/07/28 04:30:41;;;;;;;2.72;1.50;;;;;;;13.02;80.46;100497.06;5052283;28;20091;-83
2022/07/28 04:33:07;;;;;;;5.22;1.45;;;;;;;12.97;80.55;100496.72;5051786;28;20024;-83
2022/07/28 04:35:33;;;;;;;2.92;1.55;;;;;;;12.94;80.42;100495.22;5048647;28;20134;-83
2022/07/28 04:38:00;;;;;;;11.27;1.85;;;;;;;12.93;80.67;100500.69;5053873;28;20482;-83
2022/07/28 04:40:26;;;;;;;3.17;1.42;;;;;;;12.85;80.54;100494.31;5053647;28;20044;-83
2022/07/28 04:42:53;;;;;;;3.92;1.42;;;;;;;12.72;80.91;100489.47;5051026;28;20036;-83
2022/07/28 04:45:19;;;;;;;1.88;1.15;;;;;;;12.66;81.10;100495.41;5048530;28;20036;-83
2022/07/28 04:47:45;;;;;;;5.00;1.80;;;;;;;12.55;81.81;100490.38;5050836;28;20040;-83
2022/07/28 04:50:14;;;;;;;4.20;1.42;;;;;;;12.41;81.96;100492.59;5033338;28;20040;-83
2022/07/28 04:52:41;;;;;;;4.22;1.40;;;;;;;12.33;82.61;100490.72;5052413;28;20040;-83
2022/07/28 04:55:07;;;;;;;3.92;1.60;;;;;;;12.21;83.01;100492.78;5051628;28;20094;-84
2022/07/28 04:57:33;;;;;;;4.22;1.63;;;;;;;12.09;83.51;100491.38;5050572;28;20794;-83
2022/07/28 05:00:00;;;;;;;2.85;1.88;;;;;;;11.99;84.11;100492.22;5079935;28;20047;-84
2022/07/28 05:02:26;;;;;;;2.63;1.65;;;;;;;11.96;84.58;100494.38;5050200;28;20103;-83
2022/07/28 05:04:52;;;;;;;4.57;2.00;;;;;;;11.94;84.73;100493.69;5048068;28;20052;-83
2022/07/28 05:07:18;;;;;;;3.25;2.30;;;;;;;11.91;84.78;100500.94;5048757;28;20431;-83
2022/07/28 05:09:44;;;;;;;3.40;2.08;;;;;;;11.89;85.54;100499.44;5050459;28;20493;-83
2022/07/28 05:12:10;;;;;;;5.05;2.65;;;;;;;11.90;85.76;100501.94;5050007;28;20075;-83
2022/07/28 05:14:36;;;;;;;2.92;2.42;;;;;;;11.93;85.59;100499.97;5053238;28;20040;-83
2022/07/28 05:17:02;;;;;;;2.80;1.98;;;;;;;11.98;85.76;100500.34;5049448;28;20112;-83
2022/07/28 05:19:28;;;;;;;5.63;2.08;;;;;;;12.01;85.41;100498.22;5059688;28;20367;-83
2022/07/28 05:21:54;;;;;;;2.47;2.00;;;;;;;12.05;85.54;100504.06;5035779;28;20076;-83
2022/07/28 05:24:19;;;;;;;4.93;2.38;;;;;;;12.06;85.21;100497.75;5050019;28;20036;-83
2022/07/28 05:26:45;;;;;;;5.07;2.50;;;;;;;12.01;85.59;100500.88;5061997;28;20064;-83
2022/07/28 05:29:11;;;;;;;7.00;2.60;;;;;;;11.98;85.85;100503.81;5051967;28;20029;-84
2022/07/28 05:31:37;;;;;;;6.90;2.22;;;;;;;11.99;86.06;100502.81;5048386;28;20330;-83
2022/07/28 05:34:03;;;;;;;5.75;2.60;;;;;;;11.96;85.77;100503.13;5049823;28;20402;-83
2022/07/28 05:36:28;;;;;;;5.78;2.50;;;;;;;11.93;85.62;100502.63;5048947;28;20801;-83
2022/07/28 05:38:54;;;;;;;3.88;2.58;;;;;;;11.89;86.43;100507.38;5049421;28;20036;-84
2022/07/28 05:41:26;;;;;;;4.30;2.63;;;;;;;11.84;86.40;100499.91;5038387;28;20032;-83
2022/07/28 05:43:57;;;;;;;3.17;2.10;;;;;;;11.85;86.76;100501.53;5049448;28;20033;-83
2022/07/28 05:46:23;;;;;;;4.05;2.10;;;;;;;11.87;86.82;100504.03;5046484;28;20032;-83
2022/07/28 05:48:50;;;;;;;4.18;2.10;;;;;;;11.86;86.71;100500.59;5049504;28;20028;-84
2022/07/28 05:51:16;;;;;;;5.38;2.45;;;;;;;11.85;86.84;100490.94;5046973;28;20078;-83
2022/07/28 05:53:42;;;;;;;4.35;2.50;;;;;;;11.83;87.10;100490.28;5045737;28;20447;-83
2022/07/28 05:56:07;;;;;;;3.67;2.10;;;;;;;11.85;87.33;100500.75;5048912;28;20028;-83
2022/07/28 05:58:33;;;;;;;5.75;2.05;;;;;;;11.91;87.45;100490.34;5055267;28;20028;-83
2022/07/28 06:01:01;;;;;;;3.05;2.50;;;;;;;11.99;87.03;100497.53;5046455;28;20386;-83
2022/07/28 06:03:29;;;;;;;4.45;1.92;;;;;;;11.96;87.29;100494.38;5064394;28;20041;-83
2022/07/28 06:05:55;;;;;;;5.22;2.35;;;;;;;11.95;87.39;100498.81;5032066;28;20029;-84
2022/07/28 06:08:23;;;;;;;4.07;2.08;;;;;;;12.00;87.30;100493.91;5053200;28;20040;-83
2022/07/28 06:11:00;;;;;;;2.78;1.98;;;;;;;12.02;87.12;100493.75;5049280;28;20025;-83
2022/07/28 06:13:28;;;;;;;3.55;2.50;;;;;;;12.05;87.15;100498.75;5050910;28;20041;-83
2022/07/28 06:15:54;;;;;;;2.88;2.45;;;;;;;12.10;87.10;100496.50;5050365;28;20036;-83
2022/07/28 06:18:21;;;;;;;3.80;2.60;;;;;;;12.22;86.76;100494.44;5049451;28;20071;-83
2022/07/28 06:20:47;;;;;;;3.67;2.17;;;;;;;12.33;86.72;100500.47;5046844;28;20036;-83
2022/07/28 06:23:20;;;;;;;6.25;1.95;;;;;;;12.40;86.08;100497.06;5053926;28;20090;-83
2022/07/28 06:25:46;;;;;;;2.15;2.00;;;;;;;12.46;85.74;100502.72;5050240;28;20029;-83
2022/07/28 06:28:12;;;;;;;3.47;2.08;;;;;;;12.49;85.76;100499.75;5032788;28;20562;-83
2022/07/28 06:30:38;;;;;;;3.05;2.00;;;;;;;12.50;85.73;100502.25;5027272;28;20069;-83
2022/07/28 06:33:04;;;;;;;2.58;2.15;;;;;;;12.58;85.49;100492.69;5047203;28;20025;-83
2022/07/28 06:35:31;;;;;;;4.22;1.88;;;;;;;12.69;85.10;100499.56;5049020;28;20048;-83
2022/07/28 06:37:57;;;;;;;2.60;1.77;;;;;;;12.70;84.52;100498.56;5050752;28;20108;-83
2022/07/28 06:40:23;;;;;;;6.05;1.83;;;;;;;12.74;84.66;100495.44;5050530;28;20040;-83
2022/07/28 06:42:50;;;;;;;2.30;1.60;;;;;;;12.84;84.21;100497.97;5050611;28;20025;-83
2022/07/28 06:45:17;;;;;;;2.03;1.40;;;;;;;12.96;83.98;100506.50;5050838;28;20078;-83
2022/07/28 06:47:43;;;;;;;1.40;1.30;;;;;;;13.05;83.47;100507.38;5050347;28;20135;-83
2022/07/28 06:50:09;;;;;;;2.00;1.58;;;;;;;13.14;83.08;100501.09;5056382;28;20388;-83
2022/07/28 06:52:36;;;;;;;5.32;1.55;;;;;;;13.24;82.24;100502.78;5027494;28;20033;-83
2022/07/28 06:55:05;;;;;;;4.07;1.38;;;;;;;13.27;81.80;100508.59;5050155;28;20033;-83
2022/07/28 06:57:34;;;;;;;1.70;1.27;;;;;;;13.34;81.33;100503.50;5053983;28;20064;-83
2022/07/28 07:00:03;;;;;;;1.73;1.15;;;;;;;13.46;81.13;100503.19;5054227;28;20029;-83
2022/07/28 07:02:30;;;;;;;5.63;1.25;;;;;;;13.55;80.69;100501.41;5055212;28;20478;-83
2022/07/28 07:04:56;;;;;;;2.60;1.30;;;;;;;13.61;79.86;100506.91;5055010;28;20033;-83
2022/07/28 07:07:22;;;;;;;2.47;1.00;;;;;;;13.71;79.60;100506.75;5055347;28;20481;-83
2022/07/28 07:09:48;;;;;;;1.98;1.23;;;;;;;13.79;79.38;100498.00;5056826;28;20041;-83
2022/07/28 07:12:14;;;;;;;1.30;1.20;;;;;;;13.87;78.87;100497.97;5053756;28;20465;-83
2022/07/28 07:14:39;;;;;;;2.92;0.90;;;;;;;13.91;78.46;100487.84;5053340;28;20033;-83
2022/07/28 07:17:05;;;;;;;1.48;0.85;;;;;;;13.98;76.84;100498.66;5055797;28;20025;-83
2022/07/28 07:19:31;;;;;;;2.83;0.90;;;;;;;13.86;76.53;100500.78;5054054;28;20043;-83
2022/07/28 07:21:57;;;;;;;2.90;1.25;;;;;;;13.86;76.83;100504.28;5054087;28;20029;-83
2022/07/28 07:24:23;;;;;;;3.72;0.85;;;;;;;14.01;76.84;100499.13;5055708;28;20045;-83
2022/07/28 07:26:49;;;;;;;1.52;0.90;;;;;;;14.26;76.53;100507.13;5058387;28;20036;-83
2022/07/28 07:29:15;;;;;;;1.65;0.90;;;;;;;14.61;75.94;100506.06;5058221;28;20029;-83
2022/07/28 07:31:41;;;;;;;3.15;0.88;;;;;;;14.87;75.34;100505.84;5050100;28;20059;-83
2022/07/28 07:34:07;;;;;;;4.68;1.30;;;;;;;15.12;74.94;100502.28;5049722;28;20056;-83
2022/07/28 07:36:33;;;;;;;3.25;0.90;;;;;;;15.36;74.09;100501.34;5054400;28;20383;-83
2022/07/28 07:38:58;;;;;;;2.78;0.95;;;;;;;15.59;73.68;100495.22;5051498;28;20037;-83
2022/07/28 07:41:24;;;;;;;2.80;0.90;;;;;;;15.84;73.17;100497.72;5052260;28;20079;-83
2022/07/28 07:43:50;;;;;;;2.10;1.10;;;;;;;16.03;72.62;100500.09;5053034;28;20037;-83
2022/07/28 07:46:16;;;;;;;3.20;1.33;;;;;;;16.22;72.07;100504.94;5053943;28;20039;-83
2022/07/28 07:48:42;;;;;;;1.77;1.30;;;;;;;16.40;71.45;100498.44;5036523;28;20443;-83
2022/07/28 07:51:08;;;;;;;1.73;0.90;;;;;;;16.38;70.49;100495.13;5052870;28;20059;-83
2022/07/28 07:53:34;;;;;;;2.47;0.90;;;;;;;16.53;70.54;100494.31;5053873;28;20032;-83
2022/07/28 07:56:01;;;;;;;1.90;1.25;;;;;;;16.61;70.08;100499.59;5054394;28;20378;-83
2022/07/28 07:58:27;;;;;;;3.85;1.55;;;;;;;16.61;69.71;100504.91;5055920;28;20029;-83
2022/07/28 08:00:53;;;;;;;2.25;1.15;;;;;;;16.68;69.41;100497.81;5041331;28;20392;-83
2022/07/28 08:03:19;;;;;;;2.25;1.17;;;;;;;16.74;69.18;100496.25;5052297;28;20056;-83
2022/07/28 08:05:45;;;;;;;2.67;1.50;;;;;;;16.82;69.04;100498.00;5054347;28;20040;-83
2022/07/28 08:08:11;;;;;;;2.53;1.00;;;;;;;16.67;68.27;100500.69;5058276;28;20041;-83
2022/07/28 08:10:38;;;;;;;3.20;1.30;;;;;;;16.47;68.80;100496.69;5042908;28;20033;-83
2022/07/28 08:13:05;;;;;;;2.92;1.30;;;;;;;16.23;68.84;100500.41;5052354;28;20492;-83
2022/07/28 08:15:32;;;;;;;1.75;0.95;;;;;;;16.17;69.30;100498.47;5053010;28;20033;-83
2022/07/28 08:17:59;;;;;;;2.17;1.30;;;;;;;16.15;69.57;100506.66;5052522;28;20029;-78
2022/07/28 08:20:25;;;;;;;4.80;1.52;;;;;;;16.11;69.58;100503.53;5057075;28;20036;-78
2022/07/28 08:22:55;;;;;;;1.88;1.30;;;;;;;16.13;69.60;100503.38;5053797;28;20087;-82
2022/07/28 08:25:22;;;;;;;3.05;1.05;;;;;;;16.23;69.32;100498.59;5052182;28;20060;-83
2022/07/28 08:27:48;;;;;;;2.33;1.15;;;;;;;16.33;69.21;100502.84;5053566;28;20169;-83
2022/07/28 08:30:15;;;;;;;2.17;1.00;;;;;;;16.45;68.82;100504.03;5053819;28;20131;-82
2022/07/28 08:32:41;;;;;;;3.63;1.10;;;;;;;16.56;68.77;100494.75;5053118;28;20047;-82
2022/07/28 08:35:08;;;;;;;3.17;1.23;;;;;;;16.67;68.62;100495.34;5035579;28;20124;-83
2022/07/28 08:37:34;;;;;;;1.60;1.10;;;;;;;16.57;68.42;100500.94;5052579;28;20075;-83
2022/07/28 08:40:00;;;;;;;2.85;0.90;;;;;;;16.60;68.25;100495.22;5058150;28;20159;-83
2022/07/28 08:42:47;;;;;;;2.30;0.93;;;;;;;16.66;67.79;100491.03;5051678;28;20124;-82
2022/07/28 08:45:14;;;;;;;2.30;1.15;;;;;;;16.79;67.30;100493.88;5035404;28;20473;-82
2022/07/28 08:47:41;;;;;;;2.13;0.95;;;;;;;16.91;67.00;100494.25;5052800;28;20564;-83
2022/07/28 08:50:09;;;;;;;2.63;1.08;;;;;;;16.90;66.49;100484.56;5056786;28;20047;-83
2022/07/28 08:52:38;;;;;;;3.35;0.90;;;;;;;17.00;66.40;100484.28;5052859;28;20043;-82
2022/07/28 08:55:07;;;;;;;3.28;0.77;;;;;;;17.04;65.79;100484.75;5052229;28;20527;-83
2022/07/28 08:57:35;;;;;;;2.95;1.13;;;;;;;17.13;65.92;100486.31;5052342;28;20491;-83
2022/07/28 09:00:03;;;;;;;2.15;0.90;;;;;;;17.21;65.63;100488.06;5053825;28;20115;-83
2022/07/28 09:02:31;;;;;;;3.72;1.02;;;;;;;16.97;64.76;100490.81;5055592;28;20041;-78
2022/07/28 09:04:58;;;;;;;2.33;0.95;;;;;;;16.89;65.20;100482.06;5059754;28;20086;-79
2022/07/28 09:07:28;;;;;;;1.52;0.80;;;;;;;16.81;65.23;100483.84;5050173;28;20039;-83
2022/07/28 09:09:53;;;;;;;4.47;1.20;;;;;;;16.73;65.01;100487.44;5051481;28;20029;-83
2022/07/28 09:12:19;;;;;;;1.58;1.10;;;;;;;16.69;65.22;100482.66;5067919;28;20482;-83
2022/07/28 09:14:45;;;;;;;3.35;1.27;;;;;;;16.77;65.50;100484.41;5051364;28;20087;-83
2022/07/28 09:17:11;;;;;;;3.67;1.10;;;;;;;16.81;65.67;100485.66;5052810;28;20029;-82
2022/07/28 09:19:37;;;;;;;4.15;1.15;;;;;;;16.92;65.78;100479.03;5061153;28;20366;-83
2022/07/28 09:22:03;;;;;;;1.58;1.02;;;;;;;16.98;65.75;100483.63;5052927;28;20412;-79
2022/07/28 09:24:38;;;;;;;6.90;1.40;;;;;;;17.01;65.71;100485.13;5050961;28;20029;-79
2022/07/28 09:27:09;;;;;;;3.17;1.00;;;;;;;17.01;65.83;100485.13;5055954;28;20037;-82
2022/07/28 09:29:38;;;;;;;4.55;1.10;;;;;;;17.07;65.77;100484.38;5057509;28;20029;-82
2022/07/28 09:32:04;;;;;;;3.53;1.10;;;;;;;17.17;65.54;100476.09;5051772;28;20039;-82
2022/07/28 09:34:43;;;;;;;3.88;1.38;;;;;;;17.27;64.94;100475.78;5051684;28;20584;-82
2022/07/28 09:37:24;;;;;;;5.55;1.45;;;;;;;17.34;64.59;100468.69;5052278;28;20043;-82
2022/07/28 09:39:52;;;;;;;2.00;1.23;;;;;;;17.46;64.58;100463.66;5050725;28;20033;-82
2022/07/28 09:42:19;;;;;;;2.42;1.00;;;;;;;17.52;64.16;100456.75;5052423;28;20033;-82
2022/07/28 09:45:00;;;;;;;3.03;1.45;;;;;;;17.50;64.33;100464.94;5053496;28;20059;-82
2022/07/28 09:47:29;;;;;;;2.65;1.30;;;;;;;17.58;64.78;100464.81;5056281;28;20053;-82
2022/07/28 09:49:55;;;;;;;2.67;1.45;;;;;;;17.59;64.48;100461.13;5055561;28;20037;-82
2022/07/28 09:52:35;;;;;;;3.42;1.42;;;;;;;17.61;63.55;100458.28;5054263;28;20067;-82
2022/07/28 09:55:04;;;;;;;2.60;1.00;;;;;;;17.66;63.22;100458.50;5053277;28;20570;-82
2022/07/28 09:57:33;;;;;;;5.60;1.27;;;;;;;17.69;63.08;100460.00;5052382;28;20033;-82
2022/07/28 09:59:59;;;;;;;1.58;1.20;;;;;;;17.80;62.47;100463.97;5053211;28;20029;-82
2022/07/28 10:02:32;;;;;;;3.80;1.00;;;;;;;17.94;62.73;100452.38;5059077;28;20102;-82
2022/07/28 10:04:59;;;;;;;4.05;1.27;;;;;;;18.10;62.30;100453.13;5062227;28;20116;-82
2022/07/28 10:07:30;;;;;;;3.45;1.13;;;;;;;18.26;62.37;100461.91;5052548;28;20485;-82
2022/07/28 10:10:04;;;;;;;2.78;0.98;;;;;;;18.40;62.37;100452.09;5050311;28;20033;-82
2022/07/28 10:12:32;;;;;;;4.45;1.00;;;;;;;18.42;62.41;100452.75;5049737;28;20033;-82
2022/07/28 10:17:58;;;;;;;6.25;1.55;;;;;;;18.50;62.06;100457.13;5054094;28;20036;-83
2022/07/28 10:20:25;;;;;;;5.65;0.90;;;;;;;18.61;61.80;100459.25;5059185;28;20033;-82
2022/07/28 10:22:54;;;;;;;4.20;1.05;;;;;;;18.68;61.08;100454.75;5051062;28;20104;-83
2022/07/28 10:25:21;;;;;;;4.68;1.00;;;;;;;18.72;60.56;100458.69;5055206;28;20091;-82
2022/07/28 10:27:47;;;;;;;1.50;0.90;;;;;;;18.73;60.55;100446.13;5052323;28;20033;-82
2022/07/28 10:30:14;;;;;;;2.00;1.02;;;;;;;18.66;60.33;100448.78;5051398;28;20040;-82
2022/07/28 10:32:44;;;;;;;3.22;1.40;;;;;;;18.60;60.08;100455.72;5054132;28;20054;-82
2022/07/28 10:35:12;;;;;;;1.40;0.80;;;;;;;18.66;60.06;100454.13;5057859;28;20057;-82
2022/07/28 10:37:57;;;;;;;2.60;0.93;;;;;;;18.77;59.26;100450.06;5037676;28;20610;-82
2022/07/28 10:40:30;;;;;;;3.72;0.88;;;;;;;18.90;59.07;100453.81;5055481;28;20482;-82
2022/07/28 10:42:59;;;;;;;2.70;0.82;;;;;;;18.92;59.42;100454.47;5054218;28;20041;-82
2022/07/28 10:45:25;;;;;;;5.90;1.40;;;;;;;19.03;59.01;100458.41;5054653;28;20496;-82
2022/07/28 10:47:52;;;;;;;3.55;0.82;;;;;;;19.14;58.83;100449.84;5055398;28;20033;-82
2022/07/28 10:50:19;;;;;;;2.08;0.77;;;;;;;19.30;58.62;100453.97;5054230;28;20505;-83
2022/07/28 10:52:46;;;;;;;3.40;0.90;;;;;;;19.38;58.02;100449.47;5056503;28;20032;-82
2022/07/28 10:55:37;;;;;;;2.80;1.05;;;;;;;19.36;58.04;100444.31;5054514;28;20056;-82
2022/07/28 10:58:18;;;;;;;2.55;0.80;;;;;;;19.33;58.15;100445.53;5087664;28;20090;-82
2022/07/28 11:00:49;;;;;;;1.80;0.80;;;;;;;19.36;58.10;100447.00;5054207;28;20393;-82
2022/07/28 11:03:41;;;;;;;4.28;0.80;;;;;;;19.42;57.91;100445.34;5062389;28;20087;-83
2022/07/28 11:06:33;;;;;;;5.55;1.13;;;;;;;19.51;57.69;100451.34;5037636;28;20035;-82
2022/07/28 11:09:20;;;;;;;3.15;0.98;;;;;;;19.56;57.51;100451.53;5045607;28;20048;-82
2022/07/28 11:11:50;;;;;;;4.93;1.02;;;;;;;19.62;57.73;100448.06;5052779;28;20037;-82
2022/07/28 11:14:21;;;;;;;2.85;1.13;;;;;;;19.59;56.25;100451.13;5087077;28;20040;-82
2022/07/28 11:16:59;;;;;;;2.35;0.77;;;;;;;19.39;56.33;100451.94;5045400;28;20033;-82
2022/07/28 11:19:25;;;;;;;1.60;0.60;;;;;;;19.45;56.80;100448.44;5050287;28;20028;-82
2022/07/28 11:22:13;;;;;;;1.23;0.88;;;;;;;19.53;55.98;100450.13;5037416;28;20033;-83
2022/07/28 11:25:00;;;;;;;3.47;0.60;;;;;;;19.51;56.20;100449.47;5057809;28;20024;-83
2022/07/28 11:27:38;;;;;;;2.55;0.70;;;;;;;19.51;56.20;100446.81;5056701;28;20134;-78
2022/07/28 11:30:08;;;;;;;2.22;0.80;;;;;;;19.58;56.07;100446.81;5036797;28;20037;-78
2022/07/28 11:32:49;;;;;;;1.92;0.70;;;;;;;19.68;55.28;100449.09;5053516;28;20032;-83
2022/07/28 11:35:17;;;;;;;2.25;0.80;;;;;;;19.84;55.08;100447.88;5055687;28;20512;-83
2022/07/28 11:38:01;;;;;;;3.45;0.95;;;;;;;19.91;54.56;100440.66;5056597;28;20064;-83